sensor_id;sensor_type;location;lat;lon;timestamp;P1;durP1;ratioP1;P2;durP2;ratioP2
51288;SDS011;37372;52.294;5.152;2023-07-20T00:00:54;2.00;;;1.30;;
51288;SDS011;37372;52.294;5.152;2023-07-20T00:03:20;2.97;;;1.27;;
51288;SDS011;37372;52.294;5.152;2023-07-20T00:05:51;3.60;;;1.30;;
51288;SDS011;37372;52.294;5.152;2023-07-20T00:08:17;2.83;;;1.60;;
51288;SDS011;37372;52.294;5.152;2023-07-20T00:10:48;1.77;;;1.08;;
51288;SDS011;37372;52.294;5.152;2023-07-20T00:13:21;2.97;;;1.33;;
51288;SDS011;37372;52.294;5.152;2023-07-20T00:15:55;2.30;;;1.00;;
51288;SDS011;37372;52.294;5.152;2023-07-20T00:18:23;4.97;;;1.50;;
51288;SDS011;37372;52.294;5.152;2023-07-20T00:20:52;2.20;;;1.33;;
51288;SDS011;37372;52.294;5.152;2023-07-20T00:23:17;3.22;;;1.63;;
51288;SDS011;37372;52.294;5.152;2023-07-20T00:25:54;3.92;;;1.40;;
51288;SDS011;37372;52.294;5.152;2023-07-20T00:28:20;2.45;;;1.60;;
51288;SDS011;37372;52.294;5.152;2023-07-20T00:31:04;2.00;;;1.30;;
51288;SDS011;37372;52.294;5.152;2023-07-20T00:33:30;2.13;;;1.48;;
51288;SDS011;37372;52.294;5.152;2023-07-20T00:36:03;2.78;;;1.40;;
51288;SDS011;37372;52.294;5.152;2023-07-20T00:38:31;3.13;;;1.40;;
51288;SDS011;37372;52.294;5.152;2023-07-20T00:40:57;4.07;;;1.63;;
51288;SDS011;37372;52.294;5.152;2023-07-20T00:43:23;5.00;;;1.50;;
51288;SDS011;37372;52.294;5.152;2023-07-20T00:45:53;3.03;;;1.88;;
51288;SDS011;37372;52.294;5.152;2023-07-20T00:48:34;3.85;;;2.15;;
51288;SDS011;37372;52.294;5.152;2023-07-20T00:51:01;3.55;;;2.30;;
51288;SDS011;37372;52.294;5.152;2023-07-20T00:53:33;5.22;;;2.50;;
51288;SDS011;37372;52.294;5.152;2023-07-20T00:56:00;3.33;;;2.38;;
51288;SDS011;37372;52.294;5.152;2023-07-20T00:58:28;5.95;;;2.85;;
51288;SDS011;37372;52.294;5.152;2023-07-20T01:01:01;3.85;;;2.47;;
51288;SDS011;37372;52.294;5.152;2023-07-20T01:03:37;5.43;;;2.50;;
51288;SDS011;37372;52.294;5.152;2023-07-20T01:09:27;4.25;;;2.58;;
51288;SDS011;37372;52.294;5.152;2023-07-20T01:14:30;6.32;;;2.90;;
51288;SDS011;37372;52.294;5.152;2023-07-20T01:16:57;4.25;;;2.63;;
51288;SDS011;37372;52.294;5.152;2023-07-20T01:19:24;6.00;;;3.55;;
51288;SDS011;37372;52.294;5.152;2023-07-20T01:30:16;4.25;;;3.00;;
51288;SDS011;37372;52.294;5.152;2023-07-20T01:32:56;5.57;;;3.10;;
51288;SDS011;37372;52.294;5.152;2023-07-20T01:35:23;4.88;;;3.50;;
51288;SDS011;37372;52.294;5.152;2023-07-20T01:37:56;5.40;;;2.88;;
51288;SDS011;37372;52.294;5.152;2023-07-20T01:40:26;5.55;;;3.05;;
51288;SDS011;37372;52.294;5.152;2023-07-20T01:42:52;4.53;;;3.20;;
51288;SDS011;37372;52.294;5.152;2023-07-20T01:45:19;4.90;;;3.05;;
51288;SDS011;37372;52.294;5.152;2023-07-20T01:47:44;5.75;;;3.70;;
51288;SDS011;37372;52.294;5.152;2023-07-20T01:50:13;7.97;;;3.63;;
51288;SDS011;37372;52.294;5.152;2023-07-20T01:52:44;5.18;;;3.33;;
51288;SDS011;37372;52.294;5.152;2023-07-20T01:55:10;5.75;;;3.20;;
51288;SDS011;37372;52.294;5.152;2023-07-20T01:57:45;4.40;;;2.65;;
51288;SDS011;37372;52.294;5.152;2023-07-20T02:00:20;5.65;;;3.03;;
51288;SDS011;37372;52.294;5.152;2023-07-20T02:02:49;5.15;;;3.15;;
51288;SDS011;37372;52.294;5.152;2023-07-20T02:05:15;5.78;;;3.30;;
51288;SDS011;37372;52.294;5.152;2023-07-20T02:07:41;5.05;;;3.38;;
51288;SDS011;37372;52.294;5.152;2023-07-20T02:10:07;5.15;;;3.20;;
51288;SDS011;37372;52.294;5.152;2023-07-20T02:12:32;7.63;;;3.80;;
51288;SDS011;37372;52.294;5.152;2023-07-20T02:14:58;6.45;;;3.30;;
51288;SDS011;37372;52.294;5.152;2023-07-20T02:17:24;4.65;;;2.90;;
51288;SDS011;37372;52.294;5.152;2023-07-20T02:19:50;6.28;;;3.55;;
51288;SDS011;37372;52.294;5.152;2023-07-20T02:22:17;6.35;;;3.50;;
51288;SDS011;37372;52.294;5.152;2023-07-20T02:24:44;7.55;;;4.00;;
51288;SDS011;37372;52.294;5.152;2023-07-20T02:27:09;5.60;;;3.33;;
51288;SDS011;37372;52.294;5.152;2023-07-20T02:29:35;7.03;;;3.35;;
51288;SDS011;37372;52.294;5.152;2023-07-20T02:32:02;5.28;;;3.13;;
51288;SDS011;37372;52.294;5.152;2023-07-20T02:34:28;5.30;;;3.42;;
51288;SDS011;37372;52.294;5.152;2023-07-20T02:36:54;5.22;;;3.67;;
51288;SDS011;37372;52.294;5.152;2023-07-20T02:39:21;6.20;;;4.05;;
51288;SDS011;37372;52.294;5.152;2023-07-20T02:41:51;6.28;;;4.03;;
51288;SDS011;37372;52.294;5.152;2023-07-20T02:44:17;5.72;;;3.78;;
51288;SDS011;37372;52.294;5.152;2023-07-20T02:46:46;4.90;;;2.90;;
51288;SDS011;37372;52.294;5.152;2023-07-20T02:49:27;4.22;;;2.78;;
51288;SDS011;37372;52.294;5.152;2023-07-20T02:51:56;2.95;;;1.75;;
51288;SDS011;37372;52.294;5.152;2023-07-20T02:54:22;2.17;;;1.63;;
51288;SDS011;37372;52.294;5.152;2023-07-20T02:56:47;2.90;;;1.67;;
51288;SDS011;37372;52.294;5.152;2023-07-20T02:59:13;3.33;;;2.20;;
51288;SDS011;37372;52.294;5.152;2023-07-20T03:01:39;2.88;;;2.10;;
51288;SDS011;37372;52.294;5.152;2023-07-20T03:04:10;3.30;;;1.98;;
51288;SDS011;37372;52.294;5.152;2023-07-20T03:06:36;4.72;;;2.50;;
51288;SDS011;37372;52.294;5.152;2023-07-20T03:09:03;4.10;;;2.67;;
51288;SDS011;37372;52.294;5.152;2023-07-20T03:11:41;4.38;;;2.63;;
51288;SDS011;37372;52.294;5.152;2023-07-20T03:14:33;5.30;;;2.63;;
51288;SDS011;37372;52.294;5.152;2023-07-20T03:17:05;4.75;;;3.08;;
51288;SDS011;37372;52.294;5.152;2023-07-20T03:19:31;3.70;;;2.90;;
51288;SDS011;37372;52.294;5.152;2023-07-20T03:22:04;4.85;;;2.83;;
51288;SDS011;37372;52.294;5.152;2023-07-20T03:24:30;5.65;;;2.75;;
51288;SDS011;37372;52.294;5.152;2023-07-20T03:27:03;4.55;;;3.00;;
51288;SDS011;37372;52.294;5.152;2023-07-20T03:29:28;8.18;;;3.15;;
51288;SDS011;37372;52.294;5.152;2023-07-20T03:31:54;4.75;;;2.95;;
51288;SDS011;37372;52.294;5.152;2023-07-20T03:34:37;6.05;;;3.13;;
51288;SDS011;37372;52.294;5.152;2023-07-20T03:37:03;4.25;;;2.72;;
51288;SDS011;37372;52.294;5.152;2023-07-20T03:39:36;8.05;;;3.42;;
51288;SDS011;37372;52.294;5.152;2023-07-20T03:42:05;4.93;;;2.90;;
51288;SDS011;37372;52.294;5.152;2023-07-20T03:44:31;6.97;;;3.15;;
51288;SDS011;37372;52.294;5.152;2023-07-20T03:47:06;4.85;;;3.58;;
51288;SDS011;37372;52.294;5.152;2023-07-20T03:49:32;6.20;;;3.05;;
51288;SDS011;37372;52.294;5.152;2023-07-20T03:52:00;5.50;;;3.20;;
51288;SDS011;37372;52.294;5.152;2023-07-20T03:54:31;4.43;;;2.90;;
51288;SDS011;37372;52.294;5.152;2023-07-20T03:57:13;6.70;;;2.78;;
51288;SDS011;37372;52.294;5.152;2023-07-20T03:59:47;3.80;;;2.67;;
51288;SDS011;37372;52.294;5.152;2023-07-20T04:02:23;5.10;;;2.70;;
51288;SDS011;37372;52.294;5.152;2023-07-20T04:04:52;3.55;;;2.15;;
51288;SDS011;37372;52.294;5.152;2023-07-20T04:07:17;4.43;;;2.42;;
51288;SDS011;37372;52.294;5.152;2023-07-20T04:09:43;3.45;;;2.22;;
51288;SDS011;37372;52.294;5.152;2023-07-20T04:12:10;3.55;;;2.45;;
51288;SDS011;37372;52.294;5.152;2023-07-20T04:14:35;2.53;;;1.85;;
51288;SDS011;37372;52.294;5.152;2023-07-20T04:17:06;5.32;;;2.25;;
51288;SDS011;37372;52.294;5.152;2023-07-20T04:19:38;3.80;;;2.28;;
51288;SDS011;37372;52.294;5.152;2023-07-20T04:22:08;3.78;;;1.83;;
51288;SDS011;37372;52.294;5.152;2023-07-20T04:24:40;5.40;;;2.10;;
51288;SDS011;37372;52.294;5.152;2023-07-20T04:27:06;3.33;;;2.33;;
51288;SDS011;37372;52.294;5.152;2023-07-20T04:29:31;2.95;;;1.88;;
51288;SDS011;37372;52.294;5.152;2023-07-20T04:31:57;4.28;;;2.60;;
51288;SDS011;37372;52.294;5.152;2023-07-20T04:34:22;3.80;;;1.95;;
51288;SDS011;37372;52.294;5.152;2023-07-20T04:36:47;4.03;;;1.90;;
51288;SDS011;37372;52.294;5.152;2023-07-20T04:39:13;4.28;;;1.73;;
51288;SDS011;37372;52.294;5.152;2023-07-20T04:41:42;4.22;;;1.98;;
51288;SDS011;37372;52.294;5.152;2023-07-20T04:44:11;3.55;;;1.52;;
51288;SDS011;37372;52.294;5.152;2023-07-20T04:46:45;3.08;;;1.50;;
51288;SDS011;37372;52.294;5.152;2023-07-20T04:49:12;5.13;;;1.65;;
51288;SDS011;37372;52.294;5.152;2023-07-20T04:51:47;6.47;;;1.50;;
51288;SDS011;37372;52.294;5.152;2023-07-20T04:54:13;5.05;;;1.42;;
51288;SDS011;37372;52.294;5.152;2023-07-20T04:56:43;3.88;;;1.67;;
51288;SDS011;37372;52.294;5.152;2023-07-20T04:59:14;2.22;;;1.55;;
51288;SDS011;37372;52.294;5.152;2023-07-20T05:01:44;2.60;;;1.50;;
51288;SDS011;37372;52.294;5.152;2023-07-20T05:04:21;2.80;;;1.48;;
51288;SDS011;37372;52.294;5.152;2023-07-20T05:06:49;3.97;;;1.60;;
51288;SDS011;37372;52.294;5.152;2023-07-20T05:09:18;4.43;;;2.17;;
51288;SDS011;37372;52.294;5.152;2023-07-20T05:11:58;3.20;;;1.70;;
51288;SDS011;37372;52.294;5.152;2023-07-20T05:14:40;2.60;;;1.83;;
51288;SDS011;37372;52.294;5.152;2023-07-20T05:17:07;4.05;;;2.42;;
51288;SDS011;37372;52.294;5.152;2023-07-20T05:19:33;4.00;;;2.13;;
51288;SDS011;37372;52.294;5.152;2023-07-20T05:21:59;5.57;;;2.10;;
51288;SDS011;37372;52.294;5.152;2023-07-20T05:24:33;4.05;;;2.17;;
51288;SDS011;37372;52.294;5.152;2023-07-20T05:26:59;3.65;;;2.05;;
51288;SDS011;37372;52.294;5.152;2023-07-20T05:29:28;4.40;;;1.95;;
51288;SDS011;37372;52.294;5.152;2023-07-20T05:32:07;6.63;;;2.50;;
51288;SDS011;37372;52.294;5.152;2023-07-20T05:36:58;4.23;;;2.00;;
51288;SDS011;37372;52.294;5.152;2023-07-20T05:39:33;4.20;;;1.92;;
51288;SDS011;37372;52.294;5.152;2023-07-20T05:42:01;3.90;;;1.55;;
51288;SDS011;37372;52.294;5.152;2023-07-20T05:44:27;4.00;;;1.50;;
51288;SDS011;37372;52.294;5.152;2023-07-20T05:46:56;3.20;;;1.20;;
51288;SDS011;37372;52.294;5.152;2023-07-20T05:49:25;5.82;;;1.40;;
51288;SDS011;37372;52.294;5.152;2023-07-20T05:51:55;3.42;;;2.25;;
51288;SDS011;37372;52.294;5.152;2023-07-20T05:54:23;3.35;;;1.27;;
51288;SDS011;37372;52.294;5.152;2023-07-20T05:56:51;1.92;;;1.05;;
51288;SDS011;37372;52.294;5.152;2023-07-20T05:59:24;2.67;;;1.25;;
51288;SDS011;37372;52.294;5.152;2023-07-20T06:01:50;5.10;;;0.98;;
51288;SDS011;37372;52.294;5.152;2023-07-20T06:04:37;1.90;;;0.80;;
51288;SDS011;37372;52.294;5.152;2023-07-20T06:07:03;1.95;;;0.70;;
51288;SDS011;37372;52.294;5.152;2023-07-20T06:09:32;1.63;;;0.82;;
51288;SDS011;37372;52.294;5.152;2023-07-20T06:12:07;1.52;;;0.80;;
51288;SDS011;37372;52.294;5.152;2023-07-20T06:15:03;2.00;;;0.90;;
51288;SDS011;37372;52.294;5.152;2023-07-20T06:17:30;3.40;;;0.90;;
51288;SDS011;37372;52.294;5.152;2023-07-20T06:19:59;2.67;;;0.80;;
51288;SDS011;37372;52.294;5.152;2023-07-20T06:25:13;2.10;;;0.60;;
51288;SDS011;37372;52.294;5.152;2023-07-20T06:27:41;11.40;;;0.98;;
51288;SDS011;37372;52.294;5.152;2023-07-20T06:30:09;2.42;;;0.68;;
51288;SDS011;37372;52.294;5.152;2023-07-20T06:32:38;4.60;;;0.90;;
51288;SDS011;37372;52.294;5.152;2023-07-20T06:35:04;3.10;;;0.80;;
51288;SDS011;37372;52.294;5.152;2023-07-20T06:37:39;2.70;;;1.05;;
51288;SDS011;37372;52.294;5.152;2023-07-20T06:40:05;1.23;;;0.60;;
51288;SDS011;37372;52.294;5.152;2023-07-20T06:42:34;1.08;;;0.50;;
51288;SDS011;37372;52.294;5.152;2023-07-20T06:45:05;0.82;;;0.50;;
51288;SDS011;37372;52.294;5.152;2023-07-20T06:47:34;1.83;;;0.50;;
51288;SDS011;37372;52.294;5.152;2023-07-20T06:49:59;1.73;;;0.80;;
51288;SDS011;37372;52.294;5.152;2023-07-20T06:52:25;0.55;;;0.40;;
51288;SDS011;37372;52.294;5.152;2023-07-20T06:54:59;1.63;;;0.50;;
51288;SDS011;37372;52.294;5.152;2023-07-20T06:57:43;1.17;;;0.60;;
51288;SDS011;37372;52.294;5.152;2023-07-20T07:02:59;1.27;;;0.40;;
51288;SDS011;37372;52.294;5.152;2023-07-20T07:05:26;1.58;;;0.45;;
51288;SDS011;37372;52.294;5.152;2023-07-20T07:07:51;9.10;;;0.70;;
51288;SDS011;37372;52.294;5.152;2023-07-20T07:10:17;2.35;;;0.40;;
51288;SDS011;37372;52.294;5.152;2023-07-20T07:12:52;0.57;;;0.40;;
51288;SDS011;37372;52.294;5.152;2023-07-20T07:15:33;2.10;;;0.45;;
51288;SDS011;37372;52.294;5.152;2023-07-20T07:18:01;0.93;;;0.40;;
51288;SDS011;37372;52.294;5.152;2023-07-20T07:20:28;1.63;;;0.50;;
51288;SDS011;37372;52.294;5.152;2023-07-20T07:22:56;1.73;;;0.40;;
51288;SDS011;37372;52.294;5.152;2023-07-20T07:25:22;1.73;;;0.45;;
51288;SDS011;37372;52.294;5.152;2023-07-20T07:27:54;0.98;;;0.50;;
51288;SDS011;37372;52.294;5.152;2023-07-20T07:30:21;1.92;;;0.30;;
51288;SDS011;37372;52.294;5.152;2023-07-20T07:32:56;1.45;;;0.50;;
51288;SDS011;37372;52.294;5.152;2023-07-20T07:35:22;1.33;;;0.50;;
51288;SDS011;37372;52.294;5.152;2023-07-20T07:37:52;0.88;;;0.43;;
51288;SDS011;37372;52.294;5.152;2023-07-20T07:40:17;4.57;;;1.00;;
51288;SDS011;37372;52.294;5.152;2023-07-20T07:42:46;3.90;;;0.70;;
51288;SDS011;37372;52.294;5.152;2023-07-20T07:45:16;1.42;;;0.40;;
51288;SDS011;37372;52.294;5.152;2023-07-20T07:47:43;2.92;;;0.40;;
51288;SDS011;37372;52.294;5.152;2023-07-20T07:50:10;2.20;;;0.93;;
51288;SDS011;37372;52.294;5.152;2023-07-20T07:52:36;0.80;;;0.50;;
51288;SDS011;37372;52.294;5.152;2023-07-20T07:55:23;1.90;;;0.30;;
51288;SDS011;37372;52.294;5.152;2023-07-20T07:57:53;0.32;;;0.25;;
51288;SDS011;37372;52.294;5.152;2023-07-20T08:00:21;1.30;;;0.20;;
51288;SDS011;37372;52.294;5.152;2023-07-20T08:02:50;2.58;;;0.50;;
51288;SDS011;37372;52.294;5.152;2023-07-20T08:05:49;1.80;;;0.50;;
51288;SDS011;37372;52.294;5.152;2023-07-20T08:08:14;2.10;;;0.73;;
51288;SDS011;37372;52.294;5.152;2023-07-20T08:10:40;1.75;;;0.30;;
51288;SDS011;37372;52.294;5.152;2023-07-20T08:13:06;1.88;;;0.40;;
51288;SDS011;37372;52.294;5.152;2023-07-20T08:15:45;3.58;;;0.50;;
51288;SDS011;37372;52.294;5.152;2023-07-20T08:18:14;1.33;;;0.57;;
51288;SDS011;37372;52.294;5.152;2023-07-20T08:20:39;3.65;;;0.40;;
51288;SDS011;37372;52.294;5.152;2023-07-20T08:23:04;1.65;;;0.73;;
51288;SDS011;37372;52.294;5.152;2023-07-20T08:25:29;0.70;;;0.43;;
51288;SDS011;37372;52.294;5.152;2023-07-20T08:28:05;2.92;;;0.80;;
51288;SDS011;37372;52.294;5.152;2023-07-20T08:30:45;3.22;;;0.70;;
51288;SDS011;37372;52.294;5.152;2023-07-20T08:33:40;6.90;;;1.02;;
51288;SDS011;37372;52.294;5.152;2023-07-20T08:36:06;2.45;;;0.50;;
51288;SDS011;37372;52.294;5.152;2023-07-20T08:38:34;0.90;;;0.43;;
51288;SDS011;37372;52.294;5.152;2023-07-20T08:41:00;0.68;;;0.30;;
51288;SDS011;37372;52.294;5.152;2023-07-20T08:43:30;2.53;;;0.68;;
51288;SDS011;37372;52.294;5.152;2023-07-20T08:46:16;0.90;;;0.50;;
51288;SDS011;37372;52.294;5.152;2023-07-20T08:48:42;4.68;;;0.65;;
51288;SDS011;37372;52.294;5.152;2023-07-20T08:51:11;0.40;;;0.30;;
51288;SDS011;37372;52.294;5.152;2023-07-20T08:53:38;0.95;;;0.20;;
51288;SDS011;37372;52.294;5.152;2023-07-20T08:56:03;1.75;;;0.52;;
51288;SDS011;37372;52.294;5.152;2023-07-20T08:58:33;4.05;;;0.38;;
51288;SDS011;37372;52.294;5.152;2023-07-20T09:01:00;6.53;;;0.50;;
51288;SDS011;37372;52.294;5.152;2023-07-20T09:03:33;2.08;;;0.32;;
51288;SDS011;37372;52.294;5.152;2023-07-20T09:05:59;0.65;;;0.40;;
51288;SDS011;37372;52.294;5.152;2023-07-20T09:08:28;0.65;;;0.40;;
51288;SDS011;37372;52.294;5.152;2023-07-20T09:10:57;1.10;;;0.40;;
51288;SDS011;37372;52.294;5.152;2023-07-20T09:13:24;1.85;;;0.40;;
51288;SDS011;37372;52.294;5.152;2023-07-20T09:16:09;0.90;;;0.40;;
51288;SDS011;37372;52.294;5.152;2023-07-20T09:18:38;4.18;;;0.38;;
51288;SDS011;37372;52.294;5.152;2023-07-20T09:21:11;1.10;;;0.40;;
51288;SDS011;37372;52.294;5.152;2023-07-20T09:23:41;0.73;;;0.43;;
51288;SDS011;37372;52.294;5.152;2023-07-20T09:26:10;3.47;;;0.50;;
51288;SDS011;37372;52.294;5.152;2023-07-20T09:29:10;0.22;;;0.20;;
51288;SDS011;37372;52.294;5.152;2023-07-20T09:31:32;0.88;;;0.40;;
51288;SDS011;37372;52.294;5.152;2023-07-20T09:33:57;1.85;;;0.63;;
51288;SDS011;37372;52.294;5.152;2023-07-20T09:36:23;0.95;;;0.40;;
51288;SDS011;37372;52.294;5.152;2023-07-20T09:38:51;0.70;;;0.30;;
51288;SDS011;37372;52.294;5.152;2023-07-20T09:41:17;2.83;;;0.50;;
51288;SDS011;37372;52.294;5.152;2023-07-20T09:43:44;1.48;;;0.50;;
51288;SDS011;37372;52.294;5.152;2023-07-20T09:46:10;0.85;;;0.38;;
51288;SDS011;37372;52.294;5.152;2023-07-20T09:48:51;1.08;;;0.32;;
51288;SDS011;37372;52.294;5.152;2023-07-20T09:51:27;1.08;;;0.40;;
51288;SDS011;37372;52.294;5.152;2023-07-20T09:53:53;2.67;;;0.45;;
51288;SDS011;37372;52.294;5.152;2023-07-20T09:56:21;0.65;;;0.30;;
51288;SDS011;37372;52.294;5.152;2023-07-20T09:59:09;1.17;;;0.65;;
51288;SDS011;37372;52.294;5.152;2023-07-20T10:01:34;0.50;;;0.20;;
51288;SDS011;37372;52.294;5.152;2023-07-20T10:04:02;0.68;;;0.40;;
51288;SDS011;37372;52.294;5.152;2023-07-20T10:06:29;1.95;;;0.43;;
51288;SDS011;37372;52.294;5.152;2023-07-20T10:09:02;0.85;;;0.20;;
51288;SDS011;37372;52.294;5.152;2023-07-20T10:11:32;1.30;;;0.38;;
51288;SDS011;37372;52.294;5.152;2023-07-20T10:14:03;1.83;;;0.47;;
51288;SDS011;37372;52.294;5.152;2023-07-20T10:16:42;0.70;;;0.30;;
51288;SDS011;37372;52.294;5.152;2023-07-20T10:22:19;0.75;;;0.32;;
51288;SDS011;37372;52.294;5.152;2023-07-20T10:24:51;0.63;;;0.30;;
51288;SDS011;37372;52.294;5.152;2023-07-20T10:27:24;0.50;;;0.20;;
51288;SDS011;37372;52.294;5.152;2023-07-20T10:29:53;0.40;;;0.30;;
51288;SDS011;37372;52.294;5.152;2023-07-20T10:32:20;1.70;;;0.50;;
51288;SDS011;37372;52.294;5.152;2023-07-20T10:34:55;1.65;;;0.40;;
51288;SDS011;37372;52.294;5.152;2023-07-20T10:43:22;2.38;;;0.50;;
51288;SDS011;37372;52.294;5.152;2023-07-20T10:45:50;1.17;;;0.50;;
51288;SDS011;37372;52.294;5.152;2023-07-20T10:51:29;1.65;;;0.55;;
51288;SDS011;37372;52.294;5.152;2023-07-20T10:54:46;1.05;;;0.50;;
51288;SDS011;37372;52.294;5.152;2023-07-20T10:56:44;1.40;;;0.70;;
51288;SDS011;37372;52.294;5.152;2023-07-20T10:59:20;4.93;;;0.90;;
51288;SDS011;37372;52.294;5.152;2023-07-20T11:02:06;3.25;;;1.05;;
51288;SDS011;37372;52.294;5.152;2023-07-20T11:04:42;1.10;;;0.50;;
51288;SDS011;37372;52.294;5.152;2023-07-20T11:07:17;1.73;;;0.52;;
51288;SDS011;37372;52.294;5.152;2023-07-20T11:10:13;1.65;;;0.60;;
51288;SDS011;37372;52.294;5.152;2023-07-20T11:13:02;1.55;;;0.52;;
51288;SDS011;37372;52.294;5.152;2023-07-20T11:16:13;2.78;;;0.73;;
51288;SDS011;37372;52.294;5.152;2023-07-20T11:18:48;2.28;;;0.65;;
51288;SDS011;37372;52.294;5.152;2023-07-20T11:21:13;1.13;;;0.60;;
51288;SDS011;37372;52.294;5.152;2023-07-20T11:23:40;2.17;;;0.70;;
51288;SDS011;37372;52.294;5.152;2023-07-20T11:26:08;2.95;;;0.80;;
51288;SDS011;37372;52.294;5.152;2023-07-20T11:28:38;6.70;;;1.33;;
51288;SDS011;37372;52.294;5.152;2023-07-20T11:31:03;2.80;;;1.00;;
51288;SDS011;37372;52.294;5.152;2023-07-20T11:33:34;1.20;;;0.55;;
51288;SDS011;37372;52.294;5.152;2023-07-20T11:36:08;6.18;;;0.80;;
51288;SDS011;37372;52.294;5.152;2023-07-20T11:38:34;1.67;;;0.63;;
51288;SDS011;37372;52.294;5.152;2023-07-20T11:41:05;4.45;;;1.00;;
51288;SDS011;37372;52.294;5.152;2023-07-20T11:43:31;2.35;;;0.80;;
51288;SDS011;37372;52.294;5.152;2023-07-20T11:46:04;3.83;;;0.82;;
51288;SDS011;37372;52.294;5.152;2023-07-20T11:48:33;1.17;;;0.60;;
51288;SDS011;37372;52.294;5.152;2023-07-20T11:51:01;1.75;;;0.90;;
51288;SDS011;37372;52.294;5.152;2023-07-20T11:53:33;2.05;;;0.80;;
51288;SDS011;37372;52.294;5.152;2023-07-20T11:55:58;2.63;;;0.70;;
51288;SDS011;37372;52.294;5.152;2023-07-20T11:58:35;3.17;;;0.85;;
51288;SDS011;37372;52.294;5.152;2023-07-20T12:01:18;6.30;;;0.85;;
51288;SDS011;37372;52.294;5.152;2023-07-20T12:03:55;5.82;;;1.15;;
51288;SDS011;37372;52.294;5.152;2023-07-20T12:06:26;2.58;;;0.80;;
51288;SDS011;37372;52.294;5.152;2023-07-20T12:08:56;2.33;;;0.77;;
51288;SDS011;37372;52.294;5.152;2023-07-20T12:11:34;6.80;;;1.23;;
51288;SDS011;37372;52.294;5.152;2023-07-20T12:13:59;3.17;;;1.02;;
51288;SDS011;37372;52.294;5.152;2023-07-20T12:16:38;3.17;;;0.90;;
51288;SDS011;37372;52.294;5.152;2023-07-20T12:19:19;1.27;;;0.70;;
51288;SDS011;37372;52.294;5.152;2023-07-20T12:21:50;3.60;;;1.25;;
51288;SDS011;37372;52.294;5.152;2023-07-20T12:24:34;1.65;;;0.88;;
51288;SDS011;37372;52.294;5.152;2023-07-20T12:27:06;4.07;;;0.85;;
51288;SDS011;37372;52.294;5.152;2023-07-20T12:29:31;2.05;;;0.95;;
51288;SDS011;37372;52.294;5.152;2023-07-20T12:32:01;1.92;;;1.08;;
51288;SDS011;37372;52.294;5.152;2023-07-20T12:34:26;2.50;;;0.90;;
51288;SDS011;37372;52.294;5.152;2023-07-20T12:36:52;2.47;;;1.20;;
51288;SDS011;37372;52.294;5.152;2023-07-20T12:39:18;2.15;;;0.95;;
51288;SDS011;37372;52.294;5.152;2023-07-20T12:41:46;2.33;;;0.80;;
51288;SDS011;37372;52.294;5.152;2023-07-20T12:44:15;3.42;;;0.98;;
51288;SDS011;37372;52.294;5.152;2023-07-20T12:46:59;3.67;;;0.85;;
51288;SDS011;37372;52.294;5.152;2023-07-20T12:49:24;12.88;;;1.30;;
51288;SDS011;37372;52.294;5.152;2023-07-20T12:51:50;1.95;;;0.68;;
51288;SDS011;37372;52.294;5.152;2023-07-20T12:54:15;1.38;;;0.60;;
51288;SDS011;37372;52.294;5.152;2023-07-20T12:56:43;2.08;;;0.82;;
51288;SDS011;37372;52.294;5.152;2023-07-20T12:59:08;1.15;;;0.40;;
51288;SDS011;37372;52.294;5.152;2023-07-20T13:01:34;1.50;;;0.68;;
51288;SDS011;37372;52.294;5.152;2023-07-20T13:03:59;2.67;;;0.70;;
51288;SDS011;37372;52.294;5.152;2023-07-20T13:06:35;5.57;;;0.82;;
51288;SDS011;37372;52.294;5.152;2023-07-20T13:09:04;1.92;;;0.70;;
51288;SDS011;37372;52.294;5.152;2023-07-20T13:11:29;3.90;;;0.82;;
51288;SDS011;37372;52.294;5.152;2023-07-20T13:13:58;5.13;;;2.08;;
51288;SDS011;37372;52.294;5.152;2023-07-20T13:18:58;3.53;;;1.17;;
51288;SDS011;37372;52.294;5.152;2023-07-20T13:21:23;2.92;;;0.65;;
51288;SDS011;37372;52.294;5.152;2023-07-20T13:24:09;3.28;;;0.90;;
51288;SDS011;37372;52.294;5.152;2023-07-20T13:26:37;2.80;;;0.80;;
51288;SDS011;37372;52.294;5.152;2023-07-20T13:29:06;7.05;;;1.00;;
51288;SDS011;37372;52.294;5.152;2023-07-20T13:31:32;4.68;;;1.10;;
51288;SDS011;37372;52.294;5.152;2023-07-20T13:34:04;1.08;;;0.43;;
51288;SDS011;37372;52.294;5.152;2023-07-20T13:36:31;2.03;;;0.85;;
51288;SDS011;37372;52.294;5.152;2023-07-20T13:38:56;5.70;;;0.95;;
51288;SDS011;37372;52.294;5.152;2023-07-20T13:41:40;3.47;;;1.00;;
51288;SDS011;37372;52.294;5.152;2023-07-20T13:44:05;2.20;;;0.77;;
51288;SDS011;37372;52.294;5.152;2023-07-20T13:46:34;68.38;;;5.55;;
51288;SDS011;37372;52.294;5.152;2023-07-20T13:52:02;4.00;;;0.70;;
51288;SDS011;37372;52.294;5.152;2023-07-20T13:54:48;4.72;;;0.73;;
51288;SDS011;37372;52.294;5.152;2023-07-20T13:57:14;1.88;;;0.70;;
51288;SDS011;37372;52.294;5.152;2023-07-20T13:59:40;20.15;;;3.08;;
51288;SDS011;37372;52.294;5.152;2023-07-20T14:02:08;3.33;;;0.82;;
51288;SDS011;37372;52.294;5.152;2023-07-20T14:04:38;13.45;;;1.25;;
51288;SDS011;37372;52.294;5.152;2023-07-20T14:07:04;2.15;;;0.75;;
51288;SDS011;37372;52.294;5.152;2023-07-20T14:09:35;2.63;;;0.90;;
51288;SDS011;37372;52.294;5.152;2023-07-20T14:12:04;4.05;;;0.80;;
51288;SDS011;37372;52.294;5.152;2023-07-20T14:14:30;3.03;;;1.00;;
51288;SDS011;37372;52.294;5.152;2023-07-20T14:17:08;4.70;;;0.70;;
51288;SDS011;37372;52.294;5.152;2023-07-20T14:19:44;3.00;;;0.95;;
51288;SDS011;37372;52.294;5.152;2023-07-20T14:22:10;2.83;;;0.70;;
51288;SDS011;37372;52.294;5.152;2023-07-20T14:24:44;4.70;;;0.88;;
51288;SDS011;37372;52.294;5.152;2023-07-20T14:27:09;2.80;;;0.77;;
51288;SDS011;37372;52.294;5.152;2023-07-20T14:29:42;1.95;;;0.73;;
51288;SDS011;37372;52.294;5.152;2023-07-20T14:32:07;1.30;;;0.60;;
51288;SDS011;37372;52.294;5.152;2023-07-20T14:34:42;3.20;;;0.60;;
51288;SDS011;37372;52.294;5.152;2023-07-20T14:37:14;1.73;;;0.68;;
51288;SDS011;37372;52.294;5.152;2023-07-20T14:39:40;2.33;;;0.75;;
51288;SDS011;37372;52.294;5.152;2023-07-20T14:42:14;1.13;;;0.70;;
51288;SDS011;37372;52.294;5.152;2023-07-20T14:44:46;1.13;;;0.68;;
51288;SDS011;37372;52.294;5.152;2023-07-20T14:47:17;1.00;;;0.60;;
51288;SDS011;37372;52.294;5.152;2023-07-20T14:50:04;10.13;;;1.77;;
51288;SDS011;37372;52.294;5.152;2023-07-20T14:52:29;3.88;;;0.60;;
51288;SDS011;37372;52.294;5.152;2023-07-20T14:54:56;1.27;;;0.50;;
51288;SDS011;37372;52.294;5.152;2023-07-20T14:57:22;1.35;;;0.73;;
51288;SDS011;37372;52.294;5.152;2023-07-20T14:59:48;1.50;;;0.70;;
51288;SDS011;37372;52.294;5.152;2023-07-20T15:02:15;1.15;;;0.50;;
51288;SDS011;37372;52.294;5.152;2023-07-20T15:04:59;2.45;;;0.60;;
51288;SDS011;37372;52.294;5.152;2023-07-20T15:07:28;11.75;;;1.05;;
51288;SDS011;37372;52.294;5.152;2023-07-20T15:09:59;1.80;;;0.65;;
51288;SDS011;37372;52.294;5.152;2023-07-20T15:12:26;1.10;;;0.57;;
51288;SDS011;37372;52.294;5.152;2023-07-20T15:15:05;1.20;;;0.63;;
51288;SDS011;37372;52.294;5.152;2023-07-20T15:17:33;4.28;;;0.75;;
51288;SDS011;37372;52.294;5.152;2023-07-20T15:20:00;1.52;;;0.80;;
51288;SDS011;37372;52.294;5.152;2023-07-20T15:22:36;7.68;;;0.80;;
51288;SDS011;37372;52.294;5.152;2023-07-20T15:25:03;2.25;;;0.77;;
51288;SDS011;37372;52.294;5.152;2023-07-20T15:27:29;2.78;;;0.73;;
51288;SDS011;37372;52.294;5.152;2023-07-20T15:29:57;2.08;;;0.80;;
51288;SDS011;37372;52.294;5.152;2023-07-20T15:32:29;2.05;;;0.93;;
51288;SDS011;37372;52.294;5.152;2023-07-20T15:34:54;4.90;;;1.27;;
51288;SDS011;37372;52.294;5.152;2023-07-20T15:37:20;2.25;;;0.75;;
51288;SDS011;37372;52.294;5.152;2023-07-20T15:39:49;6.28;;;0.77;;
51288;SDS011;37372;52.294;5.152;2023-07-20T15:42:17;4.10;;;0.57;;
51288;SDS011;37372;52.294;5.152;2023-07-20T15:44:48;3.08;;;0.80;;
51288;SDS011;37372;52.294;5.152;2023-07-20T15:47:13;40.55;;;2.78;;